createdAt,value
2017-12-10T00:01:42.917Z,16.47
2017-12-10T00:04:10.578Z,14.33
2017-12-10T00:06:38.193Z,12.40
2017-12-10T00:09:06.595Z,13.93
2017-12-10T00:11:34.351Z,13.23
2017-12-10T00:14:02.722Z,13.17
2017-12-10T00:16:31.047Z,13.23
2017-12-10T00:18:59.082Z,13.00
2017-12-10T00:21:27.444Z,12.70
2017-12-10T00:23:55.192Z,14.20
2017-12-10T00:26:22.998Z,13.23
2017-12-10T00:28:50.690Z,14.20
2017-12-10T00:31:19.190Z,11.47
2017-12-10T00:33:46.779Z,12.17
2017-12-10T00:36:15.127Z,13.00
2017-12-10T00:38:42.721Z,13.80
2017-12-10T00:41:11.065Z,14.20
2017-12-10T00:43:38.710Z,12.50
2017-12-10T00:46:06.306Z,11.67
2017-12-10T00:48:33.862Z,13.23
2017-12-10T00:51:01.692Z,13.43
2017-12-10T00:53:29.350Z,11.37
2017-12-10T00:55:56.932Z,16.33
2017-12-10T00:58:24.519Z,11.40
2017-12-10T01:00:52.170Z,11.67
2017-12-10T01:03:19.847Z,12.47
2017-12-10T01:05:47.459Z,13.87
2017-12-10T01:08:15.330Z,12.50
2017-12-10T01:10:43.266Z,11.23
2017-12-10T01:13:11.591Z,12.63
2017-12-10T01:15:39.151Z,12.00
2017-12-10T01:18:06.763Z,11.07
2017-12-10T01:20:35.132Z,11.70
2017-12-10T01:23:03.842Z,12.67
2017-12-10T01:25:31.410Z,14.00
2017-12-10T01:27:59.006Z,14.07
2017-12-10T01:30:26.693Z,13.23
2017-12-10T01:32:54.411Z,11.27
2017-12-10T01:35:22.027Z,13.57
2017-12-10T01:37:49.624Z,10.87
2017-12-10T01:40:17.215Z,13.40
2017-12-10T01:42:44.802Z,13.30
2017-12-10T01:45:13.154Z,14.30
2017-12-10T01:47:40.769Z,14.33
2017-12-10T01:50:08.384Z,11.23
2017-12-10T01:52:35.966Z,10.27
2017-12-10T01:55:03.838Z,12.00
2017-12-10T01:57:32.178Z,10.97
2017-12-10T01:59:59.761Z,11.87
2017-12-10T02:02:27.380Z,11.30
2017-12-10T02:04:55.171Z,11.13
2017-12-10T02:07:22.757Z,10.23
2017-12-10T02:09:50.619Z,11.00
2017-12-10T02:12:18.183Z,10.90
2017-12-10T02:14:45.846Z,11.60
2017-12-10T02:17:13.693Z,11.73
2017-12-10T02:19:41.327Z,11.40
2017-12-10T02:22:09.111Z,10.43
2017-12-10T02:24:37.060Z,11.33
2017-12-10T02:27:04.631Z,10.60
2017-12-10T02:29:32.242Z,10.80
2017-12-10T02:32:00.226Z,10.17
2017-12-10T02:34:27.832Z,10.30
2017-12-10T02:36:56.384Z,10.50
2017-12-10T02:39:24.003Z,9.90
2017-12-10T02:41:51.564Z,10.53
2017-12-10T02:44:19.159Z,9.80
2017-12-10T02:46:46.728Z,11.63
2017-12-10T02:49:14.418Z,11.30
2017-12-10T02:51:41.994Z,9.07
2017-12-10T02:54:09.563Z,10.07
2017-12-10T02:56:37.162Z,8.97
2017-12-10T02:59:05.223Z,9.60
2017-12-10T03:01:32.857Z,8.60
2017-12-10T03:04:00.490Z,9.30
2017-12-10T03:06:28.889Z,7.83
2017-12-10T03:08:56.496Z,7.40
2017-12-10T03:11:24.056Z,8.03
2017-12-10T03:13:51.678Z,8.03
2017-12-10T03:16:19.310Z,8.77
2017-12-10T03:18:46.863Z,7.13
2017-12-10T03:21:14.534Z,6.43
2017-12-10T03:23:42.165Z,7.03
2017-12-10T03:26:09.783Z,7.23
2017-12-10T03:28:37.406Z,7.13
2017-12-10T03:31:05.020Z,6.53
2017-12-10T03:33:32.783Z,6.13
2017-12-10T03:36:01.174Z,6.03
2017-12-10T03:38:29.592Z,6.70
2017-12-10T03:40:57.153Z,5.53
2017-12-10T03:43:24.738Z,6.33
2017-12-10T03:45:52.335Z,5.00
2017-12-10T03:48:19.931Z,6.53
2017-12-10T03:50:47.582Z,6.50
2017-12-10T03:53:15.167Z,6.13
2017-12-10T03:55:42.754Z,5.53
2017-12-10T03:58:10.415Z,5.50
2017-12-10T04:00:38.002Z,5.63
2017-12-10T04:03:05.594Z,5.40
2017-12-10T04:05:33.214Z,5.17
2017-12-10T04:08:00.770Z,4.50
2017-12-10T04:10:28.369Z,4.53
2017-12-10T04:12:55.927Z,5.60
2017-12-10T04:15:23.558Z,11.20
2017-12-10T04:17:51.248Z,7.27
2017-12-10T04:20:18.862Z,6.87
2017-12-10T04:22:46.742Z,6.67
2017-12-10T04:25:14.415Z,4.70
2017-12-10T04:27:42.767Z,4.90
2017-12-10T04:30:10.333Z,5.77
2017-12-10T04:32:38.663Z,4.37
2017-12-10T04:35:06.235Z,5.53
2017-12-10T04:37:33.875Z,3.80
2017-12-10T04:40:01.482Z,3.50
2017-12-10T04:42:29.071Z,3.70
2017-12-10T04:44:57.551Z,4.10
2017-12-10T04:47:25.615Z,3.87
2017-12-10T04:49:53.225Z,2.93
2017-12-10T04:52:21.459Z,3.67
2017-12-10T04:54:49.058Z,4.33
2017-12-10T04:57:16.654Z,4.13
2017-12-10T04:59:44.296Z,3.23
2017-12-10T05:02:11.901Z,3.37
2017-12-10T05:04:39.538Z,3.30
2017-12-10T05:07:07.217Z,4.00
2017-12-10T05:09:35.611Z,3.57
2017-12-10T05:12:03.372Z,3.17
2017-12-10T05:14:31.175Z,4.73
2017-12-10T05:16:58.794Z,3.67
2017-12-10T05:19:26.361Z,3.57
2017-12-10T05:21:53.963Z,3.50
2017-12-10T05:24:21.522Z,3.00
2017-12-10T05:26:49.134Z,3.40
2017-12-10T05:29:17.601Z,3.83
2017-12-10T05:31:45.203Z,4.40
2017-12-10T05:34:12.838Z,3.43
2017-12-10T05:36:40.480Z,3.70
2017-12-10T05:39:08.163Z,3.47
2017-12-10T05:41:36.520Z,5.97
2017-12-10T05:44:04.084Z,4.47
2017-12-10T05:46:31.665Z,4.20
2017-12-10T05:49:00.239Z,4.10
2017-12-10T05:51:28.469Z,4.23
2017-12-10T05:53:56.062Z,3.57
2017-12-10T05:56:23.651Z,4.50
2017-12-10T05:58:52.761Z,5.63
2017-12-10T06:01:20.414Z,4.70
2017-12-10T06:03:48.771Z,4.30
2017-12-10T06:06:16.640Z,7.30
2017-12-10T06:08:44.364Z,7.77
2017-12-10T06:11:12.532Z,4.50
2017-12-10T06:13:40.180Z,3.93
2017-12-10T06:16:07.761Z,3.97
2017-12-10T06:18:35.341Z,4.40
2017-12-10T06:21:02.926Z,5.70
2017-12-10T06:23:30.559Z,3.70
2017-12-10T06:25:58.120Z,3.60
2017-12-10T06:28:25.737Z,3.80
2017-12-10T06:30:53.361Z,3.73
2017-12-10T06:33:21.651Z,4.47
2017-12-10T06:35:49.276Z,8.77
2017-12-10T06:38:16.835Z,5.20
2017-12-10T06:40:44.462Z,4.70
2017-12-10T06:43:12.083Z,3.73
2017-12-10T06:45:39.696Z,3.67
2017-12-10T06:48:07.301Z,4.20
2017-12-10T06:50:34.884Z,4.43
2017-12-10T06:53:02.448Z,3.90
2017-12-10T06:55:30.086Z,4.33
2017-12-10T06:57:57.701Z,3.53
2017-12-10T07:00:28.580Z,3.77
2017-12-10T07:02:56.631Z,3.73
2017-12-10T07:05:24.191Z,4.60
2017-12-10T07:07:51.771Z,3.40
2017-12-10T07:10:20.155Z,3.43
2017-12-10T07:12:47.789Z,4.03
2017-12-10T07:15:15.379Z,4.53
2017-12-10T07:17:43.009Z,4.00
2017-12-10T07:20:10.702Z,17.30
2017-12-10T07:22:38.378Z,3.73
2017-12-10T07:25:05.994Z,3.93
2017-12-10T07:27:33.556Z,3.50
2017-12-10T07:30:01.196Z,3.90
2017-12-10T07:32:28.751Z,3.43
2017-12-10T07:34:57.530Z,3.67
2017-12-10T07:37:25.438Z,3.63
2017-12-10T07:39:53.007Z,10.77
2017-12-10T07:42:20.560Z,5.07
2017-12-10T07:44:48.119Z,3.27
2017-12-10T07:47:15.737Z,4.10
2017-12-10T07:49:43.299Z,7.73
2017-12-10T07:52:10.980Z,4.07
2017-12-10T07:54:38.611Z,3.40
2017-12-10T07:57:06.232Z,3.53
2017-12-10T07:59:33.786Z,3.40
2017-12-10T08:02:01.395Z,3.73
2017-12-10T08:04:29.003Z,3.90
2017-12-10T08:06:56.582Z,3.60
2017-12-10T08:09:24.248Z,3.47
2017-12-10T08:11:51.804Z,4.17
2017-12-10T08:14:20.215Z,3.33
2017-12-10T08:16:47.828Z,3.77
2017-12-10T08:19:15.390Z,3.30
2017-12-10T08:21:43.070Z,5.40
2017-12-10T08:24:10.788Z,3.67
2017-12-10T08:26:46.352Z,20.60
2017-12-10T08:29:13.922Z,4.30
2017-12-10T08:31:41.551Z,3.70
2017-12-10T08:34:09.143Z,3.43
2017-12-10T08:36:36.827Z,4.30
2017-12-10T08:39:04.967Z,3.50
2017-12-10T08:41:32.626Z,7.37
2017-12-10T08:44:00.327Z,4.10
2017-12-10T08:46:27.938Z,5.03
2017-12-10T08:48:55.492Z,3.80
2017-12-10T08:51:23.181Z,3.20
2017-12-10T08:53:50.817Z,3.77
2017-12-10T08:56:18.430Z,3.27
2017-12-10T08:58:46.035Z,5.13
2017-12-10T09:01:14.398Z,3.47
2017-12-10T09:03:42.131Z,6.37
2017-12-10T09:06:09.767Z,3.40
2017-12-10T09:08:37.380Z,3.10
2017-12-10T09:11:05.120Z,3.10
2017-12-10T09:13:32.679Z,3.00
2017-12-10T09:16:00.249Z,3.60
2017-12-10T09:18:28.014Z,5.57
2017-12-10T09:20:55.582Z,4.27
2017-12-10T09:23:24.020Z,3.53
2017-12-10T09:25:51.586Z,3.10
2017-12-10T09:28:19.171Z,3.33
2017-12-10T09:30:46.793Z,2.90
2017-12-10T09:33:14.412Z,2.93
2017-12-10T09:35:42.797Z,3.53
2017-12-10T09:38:11.214Z,10.57
2017-12-10T09:40:38.898Z,2.97
2017-12-10T09:43:06.443Z,3.03
2017-12-10T09:45:34.039Z,2.90
2017-12-10T09:48:01.588Z,3.23
2017-12-10T09:50:29.194Z,4.30
2017-12-10T09:52:56.911Z,2.70
2017-12-10T09:55:24.484Z,3.57
2017-12-10T09:57:52.236Z,2.90
2017-12-10T10:00:20.511Z,2.87
2017-12-10T10:02:48.087Z,2.80
2017-12-10T10:05:15.696Z,3.50
2017-12-10T10:07:43.375Z,3.23
2017-12-10T10:10:11.226Z,2.70
2017-12-10T10:12:38.818Z,2.90
2017-12-10T10:15:06.415Z,2.70
2017-12-10T10:20:08.024Z,3.43
2017-12-10T10:22:35.576Z,2.60
2017-12-10T10:25:03.203Z,2.77
2017-12-10T10:27:30.909Z,2.60
2017-12-10T10:29:58.468Z,3.60
2017-12-10T10:32:26.035Z,2.83
2017-12-10T10:34:53.698Z,3.67
2017-12-10T10:37:21.334Z,3.20
2017-12-10T10:39:49.049Z,2.60
2017-12-10T10:42:16.673Z,3.30
2017-12-10T10:44:44.241Z,3.50
2017-12-10T10:47:12.210Z,2.90
2017-12-10T10:49:39.760Z,2.90
2017-12-10T10:52:08.469Z,2.60
2017-12-10T10:54:36.070Z,2.57
2017-12-10T10:57:03.759Z,3.20
2017-12-10T10:59:31.520Z,2.73
2017-12-10T11:01:59.070Z,4.80
2017-12-10T11:04:27.436Z,3.40
2017-12-10T11:06:54.991Z,3.00
2017-12-10T11:09:22.586Z,4.10
2017-12-10T11:11:50.131Z,3.20
2017-12-10T11:14:18.511Z,2.80
2017-12-10T11:16:46.835Z,3.10
2017-12-10T11:19:14.464Z,3.00
2017-12-10T11:21:42.670Z,2.63
2017-12-10T11:24:10.276Z,3.33
2017-12-10T11:26:37.844Z,3.00
2017-12-10T11:29:05.421Z,3.10
2017-12-10T11:31:33.019Z,2.77
2017-12-10T11:34:00.762Z,3.37
2017-12-10T11:36:28.375Z,2.50
2017-12-10T11:38:56.856Z,2.77
2017-12-10T11:41:25.471Z,2.50
2017-12-10T11:43:53.082Z,3.00
2017-12-10T11:46:20.921Z,2.50
2017-12-10T11:48:48.585Z,2.93
2017-12-10T11:51:16.404Z,2.90
2017-12-10T11:53:44.088Z,3.03
2017-12-10T11:56:11.726Z,3.30
2017-12-10T11:58:39.337Z,3.00
2017-12-10T12:01:07.129Z,3.13
2017-12-10T12:03:36.294Z,2.67
2017-12-10T12:06:03.906Z,3.10
2017-12-10T12:08:31.568Z,3.00
2017-12-10T12:10:59.236Z,2.77
2017-12-10T12:13:26.835Z,3.37
2017-12-10T12:15:54.400Z,4.07
2017-12-10T12:18:22.130Z,2.90
2017-12-10T12:20:49.745Z,3.40
2017-12-10T12:23:17.326Z,2.30
2017-12-10T12:25:44.944Z,2.97
2017-12-10T12:28:12.703Z,3.00
2017-12-10T12:30:40.273Z,3.20
2017-12-10T12:33:07.827Z,2.70
2017-12-10T12:35:35.386Z,2.63
2017-12-10T12:38:03.031Z,3.07
2017-12-10T12:40:30.667Z,2.83
2017-12-10T12:42:59.569Z,2.70
2017-12-10T12:45:27.897Z,2.60
2017-12-10T12:47:55.451Z,3.23
2017-12-10T12:50:23.036Z,2.70
2017-12-10T12:52:51.424Z,3.80
2017-12-10T12:55:18.988Z,3.23
2017-12-10T12:57:46.585Z,2.67
2017-12-10T13:00:14.134Z,2.80
2017-12-10T13:02:41.830Z,2.30
2017-12-10T13:05:09.427Z,2.90
2017-12-10T13:07:37.027Z,3.00
2017-12-10T13:10:04.572Z,3.20
2017-12-10T13:12:32.930Z,3.23
2017-12-10T13:15:01.287Z,3.10
2017-12-10T13:17:28.891Z,3.03
2017-12-10T13:19:56.532Z,3.50
2017-12-10T13:22:24.839Z,4.07
2017-12-10T13:24:53.291Z,2.80
2017-12-10T13:27:21.011Z,2.97
2017-12-10T13:29:48.591Z,2.27
2017-12-10T13:32:16.213Z,3.03
2017-12-10T13:34:43.808Z,3.10
2017-12-10T13:37:11.367Z,3.73
2017-12-10T13:39:39.060Z,3.00
2017-12-10T13:42:06.692Z,4.00
2017-12-10T13:44:34.604Z,3.00
2017-12-10T13:47:02.231Z,3.00
2017-12-10T13:49:29.842Z,3.23
2017-12-10T13:51:57.439Z,2.90
2017-12-10T13:54:25.012Z,3.30
2017-12-10T13:56:52.716Z,3.33
2017-12-10T13:59:21.071Z,2.80
2017-12-10T14:01:48.859Z,2.97
2017-12-10T14:04:16.455Z,3.00
2017-12-10T14:06:44.056Z,2.60
2017-12-10T14:09:11.698Z,2.97
2017-12-10T14:11:39.745Z,2.83
2017-12-10T14:14:07.556Z,4.10
2017-12-10T14:16:36.628Z,3.13
2017-12-10T14:19:04.330Z,3.07
2017-12-10T14:21:32.063Z,3.00
2017-12-10T14:23:59.605Z,3.60
2017-12-10T14:26:27.358Z,3.40
2017-12-10T14:28:54.978Z,2.60
2017-12-10T14:31:23.343Z,2.93
2017-12-10T14:33:50.927Z,3.47
2017-12-10T14:36:18.561Z,3.17
2017-12-10T14:38:46.128Z,3.37
2017-12-10T14:41:13.739Z,2.80
2017-12-10T14:43:41.310Z,3.23
2017-12-10T14:46:09.741Z,3.20
2017-12-10T14:48:37.300Z,3.33
2017-12-10T14:51:05.630Z,3.73
2017-12-10T14:53:33.522Z,3.47
2017-12-10T14:56:01.118Z,3.07
2017-12-10T14:58:29.438Z,3.20
2017-12-10T15:00:57.035Z,3.60
2017-12-10T15:03:25.466Z,4.63
2017-12-10T15:05:53.183Z,6.17
2017-12-10T15:08:20.769Z,2.70
2017-12-10T15:10:48.386Z,2.53
2017-12-10T15:13:15.956Z,2.60
2017-12-10T15:15:43.526Z,3.50
2017-12-10T15:18:12.007Z,3.10
2017-12-10T15:20:39.653Z,3.30
2017-12-10T15:23:07.337Z,2.73
2017-12-10T15:25:35.150Z,3.33
2017-12-10T15:28:02.746Z,3.47
2017-12-10T15:30:30.364Z,3.10
2017-12-10T15:32:57.969Z,3.63
2017-12-10T15:35:27.057Z,3.53
2017-12-10T15:37:55.444Z,3.70
2017-12-10T15:40:23.028Z,3.63
2017-12-10T15:42:50.629Z,3.60
2017-12-10T15:45:18.283Z,3.17
2017-12-10T15:47:46.151Z,3.53
2017-12-10T15:50:13.813Z,2.93
2017-12-10T15:52:41.420Z,3.17
2017-12-10T15:55:10.776Z,4.00
2017-12-10T15:57:38.375Z,2.70
2017-12-10T16:00:05.979Z,3.17
2017-12-10T16:02:33.722Z,3.77
2017-12-10T16:05:02.043Z,3.33
2017-12-10T16:07:29.636Z,3.77
2017-12-10T16:09:57.786Z,3.40
2017-12-10T16:12:25.394Z,3.07
2017-12-10T16:14:53.768Z,3.13
2017-12-10T16:17:21.380Z,3.27
2017-12-10T16:19:48.973Z,3.43
2017-12-10T16:22:16.558Z,3.40
2017-12-10T16:24:44.212Z,3.57
2017-12-10T16:27:12.558Z,3.70
2017-12-10T16:29:40.132Z,3.87
2017-12-10T16:32:07.727Z,3.40
2017-12-10T16:34:36.055Z,3.60
2017-12-10T16:37:03.646Z,3.80
2017-12-10T16:39:31.205Z,2.93
2017-12-10T16:41:58.819Z,5.10
2017-12-10T16:44:26.394Z,4.80
2017-12-10T16:46:53.989Z,3.30
2017-12-10T16:49:21.587Z,4.53
2017-12-10T16:51:49.143Z,4.27
2017-12-10T16:54:16.747Z,3.70
2017-12-10T16:56:44.299Z,5.60
2017-12-10T16:59:11.867Z,3.73
2017-12-10T17:01:39.442Z,4.73
2017-12-10T17:04:07.000Z,5.07
2017-12-10T17:06:34.573Z,5.37
2017-12-10T17:09:02.282Z,5.60
2017-12-10T17:11:30.199Z,4.97
2017-12-10T17:13:57.915Z,5.93
2017-12-10T17:16:25.629Z,6.10
2017-12-10T17:18:53.240Z,5.13
2017-12-10T17:21:21.981Z,6.60
2017-12-10T17:23:49.733Z,5.90
2017-12-10T17:26:17.307Z,5.37
2017-12-10T17:28:45.635Z,6.23
2017-12-10T17:31:13.235Z,7.10
2017-12-10T17:33:40.889Z,7.23
2017-12-10T17:36:08.919Z,6.97
2017-12-10T17:38:36.521Z,5.13
2017-12-10T17:41:04.098Z,7.83
2017-12-10T17:43:31.639Z,5.37
2017-12-10T17:45:59.274Z,7.00
2017-12-10T17:48:26.881Z,8.13
2017-12-10T17:50:55.243Z,9.77
2017-12-10T17:53:23.627Z,6.80
2017-12-10T17:55:51.187Z,8.83
2017-12-10T17:58:18.837Z,5.20
2017-12-10T18:00:46.607Z,11.63
2017-12-10T18:03:14.275Z,12.20
2017-12-10T18:05:41.839Z,10.20
2017-12-10T18:08:09.439Z,13.07
2017-12-10T18:10:37.014Z,16.03
2017-12-10T18:13:05.087Z,15.20
2017-12-10T18:15:32.794Z,19.03
2017-12-10T18:18:00.390Z,16.80
2017-12-10T18:20:27.994Z,12.93
2017-12-10T18:22:55.596Z,16.23
2017-12-10T18:25:23.935Z,15.93
2017-12-10T18:27:51.651Z,14.87
2017-12-10T18:30:19.271Z,12.30
2017-12-10T18:32:46.883Z,17.83
2017-12-10T18:35:14.978Z,15.80
2017-12-10T18:37:42.733Z,15.80
2017-12-10T18:40:10.427Z,12.10
2017-12-10T18:42:38.195Z,13.53
2017-12-10T18:45:05.862Z,13.37
2017-12-10T18:47:33.482Z,15.00
2017-12-10T18:50:01.052Z,11.43
2017-12-10T18:52:28.615Z,12.33
2017-12-10T18:54:56.257Z,13.07
2017-12-10T18:57:23.886Z,12.57
2017-12-10T18:59:51.474Z,11.53
2017-12-10T19:02:19.056Z,12.07
2017-12-10T19:04:48.282Z,11.47
2017-12-10T19:07:15.965Z,11.40
2017-12-10T19:09:43.515Z,10.30
2017-12-10T19:12:11.179Z,10.77
2017-12-10T19:14:39.689Z,11.17
2017-12-10T19:17:07.568Z,10.40
2017-12-10T19:19:35.488Z,9.10
2017-12-10T19:22:03.082Z,10.87
2017-12-10T19:24:30.778Z,7.27
2017-12-10T19:26:58.407Z,6.93
2017-12-10T19:29:26.747Z,6.47
2017-12-10T19:31:54.362Z,7.20
2017-12-10T19:34:21.974Z,6.70
2017-12-10T19:36:50.897Z,5.97
2017-12-10T19:39:19.460Z,5.47
2017-12-10T19:41:47.306Z,6.83
2017-12-10T19:44:14.961Z,6.80
2017-12-10T19:46:42.519Z,6.23
2017-12-10T19:49:10.163Z,6.33
2017-12-10T19:51:37.850Z,6.27
2017-12-10T19:54:05.458Z,6.30
2017-12-10T19:56:33.007Z,5.07
2017-12-10T19:59:01.347Z,6.13
2017-12-10T20:01:29.032Z,5.73
2017-12-10T20:03:59.569Z,6.00
2017-12-10T20:06:27.299Z,6.13
2017-12-10T20:08:54.937Z,6.50
2017-12-10T20:11:22.563Z,6.20
2017-12-10T20:13:50.905Z,7.60
2017-12-10T20:16:18.463Z,6.80
2017-12-10T20:18:46.128Z,7.50
2017-12-10T20:21:13.695Z,7.63
2017-12-10T20:23:41.555Z,7.37
2017-12-10T20:26:12.161Z,7.30
2017-12-10T20:28:39.782Z,9.37
2017-12-10T20:31:07.412Z,8.83
2017-12-10T20:33:35.092Z,7.50
2017-12-10T20:36:02.828Z,10.50
2017-12-10T20:38:30.409Z,10.83
2017-12-10T20:40:58.029Z,13.50
2017-12-10T20:43:25.691Z,13.83
2017-12-10T20:45:53.263Z,18.00
2017-12-10T20:48:20.909Z,18.00
2017-12-10T20:50:49.659Z,21.50
2017-12-10T20:53:17.278Z,22.67
2017-12-10T20:55:44.886Z,21.33
2017-12-10T20:58:12.490Z,20.50
2017-12-10T21:00:40.147Z,19.07
2017-12-10T21:03:08.817Z,21.47
2017-12-10T21:05:37.332Z,19.40
2017-12-10T21:08:04.906Z,20.20
2017-12-10T21:10:32.520Z,21.97
2017-12-10T21:13:00.128Z,20.30
2017-12-10T21:15:27.733Z,20.13
2017-12-10T21:17:55.386Z,21.67
2017-12-10T21:20:22.971Z,21.83
2017-12-10T21:22:51.188Z,22.17
2017-12-10T21:25:18.789Z,21.90
2017-12-10T21:27:46.490Z,21.70
2017-12-10T21:30:14.109Z,22.10
2017-12-10T21:32:41.697Z,20.60
2017-12-10T21:35:09.341Z,23.37
2017-12-10T21:37:36.942Z,23.07
2017-12-10T21:40:04.586Z,20.93
2017-12-10T21:42:32.158Z,24.87
2017-12-10T21:44:59.770Z,24.47
2017-12-10T21:47:27.472Z,24.37
2017-12-10T21:49:55.331Z,22.27
2017-12-10T21:52:22.911Z,22.90
2017-12-10T21:54:50.539Z,22.57
2017-12-10T21:57:18.130Z,19.47
2017-12-10T21:59:45.700Z,22.73
2017-12-10T22:02:13.323Z,23.07
2017-12-10T22:04:40.972Z,22.47
2017-12-10T22:07:08.624Z,23.10
2017-12-10T22:09:36.970Z,21.03
2017-12-10T22:12:04.583Z,22.10
2017-12-10T22:14:32.820Z,23.03
2017-12-10T22:17:01.487Z,23.17
2017-12-10T22:19:29.087Z,21.00
2017-12-10T22:21:57.208Z,21.23
2017-12-10T22:24:24.891Z,22.17
2017-12-10T22:26:52.704Z,21.60
2017-12-10T22:29:20.266Z,20.93
2017-12-10T22:31:47.871Z,20.73
2017-12-10T22:34:15.495Z,21.17
2017-12-10T22:36:43.051Z,19.70
2017-12-10T22:39:10.641Z,19.33
2017-12-10T22:41:38.196Z,21.87
2017-12-10T22:44:05.926Z,21.60
2017-12-10T22:46:33.529Z,22.00
2017-12-10T22:49:01.160Z,20.83
2017-12-10T22:51:28.780Z,21.07
2017-12-10T22:53:56.400Z,20.63
2017-12-10T22:56:23.970Z,18.63
2017-12-10T22:58:51.563Z,18.23
2017-12-10T23:01:19.283Z,18.57
2017-12-10T23:03:47.345Z,17.13
2017-12-10T23:06:15.075Z,19.37
2017-12-10T23:08:43.165Z,17.83
2017-12-10T23:11:11.608Z,17.67
2017-12-10T23:13:51.673Z,18.17
2017-12-10T23:16:25.112Z,18.10
2017-12-10T23:18:52.698Z,20.03
2017-12-10T23:21:20.337Z,18.50
2017-12-10T23:23:47.972Z,17.07
2017-12-10T23:26:15.602Z,15.90
2017-12-10T23:28:43.195Z,14.47
2017-12-10T23:31:10.776Z,12.80
2017-12-10T23:33:38.381Z,11.80
2017-12-10T23:36:06.063Z,12.07
2017-12-10T23:38:33.629Z,12.50
2017-12-10T23:41:01.238Z,10.60
2017-12-10T23:43:29.006Z,10.57
2017-12-10T23:45:57.052Z,10.37
2017-12-10T23:48:25.149Z,10.17
2017-12-10T23:50:54.172Z,9.30
2017-12-10T23:53:23.064Z,10.90
2017-12-10T23:55:50.697Z,10.20
2017-12-10T23:58:18.263Z,8.47
